sensor_id;sensor_type;location;lat;lon;timestamp;temperature;humidity
4904;DHT22;2467;48.142;11.616;2022-09-03T00:00:03;16.40;99.90
4904;DHT22;2467;48.142;11.616;2022-09-03T00:00:38;16.40;99.90
4904;DHT22;2467;48.142;11.616;2022-09-03T00:01:15;16.40;99.90
4904;DHT22;2467;48.142;11.616;2022-09-03T00:01:52;16.40;99.90
4904;DHT22;2467;48.142;11.616;2022-09-03T00:02:32;16.40;99.90
4904;DHT22;2467;48.142;11.616;2022-09-03T00:03:12;16.40;99.90
4904;DHT22;2467;48.142;11.616;2022-09-03T00:03:51;16.40;99.90
4904;DHT22;2467;48.142;11.616;2022-09-03T00:04:30;16.40;99.90
4904;DHT22;2467;48.142;11.616;2022-09-03T00:05:07;16.50;99.90
4904;DHT22;2467;48.142;11.616;2022-09-03T00:05:46;16.40;99.90
4904;DHT22;2467;48.142;11.616;2022-09-03T00:06:23;16.40;99.90
4904;DHT22;2467;48.142;11.616;2022-09-03T00:07:02;16.40;99.90
4904;DHT22;2467;48.142;11.616;2022-09-03T00:07:41;16.50;99.90
4904;DHT22;2467;48.142;11.616;2022-09-03T00:08:18;16.50;99.90
4904;DHT22;2467;48.142;11.616;2022-09-03T00:08:59;16.50;99.90
4904;DHT22;2467;48.142;11.616;2022-09-03T00:09:35;16.50;99.90
4904;DHT22;2467;48.142;11.616;2022-09-03T00:10:13;16.40;99.90
4904;DHT22;2467;48.142;11.616;2022-09-03T00:10:51;16.50;99.90
4904;DHT22;2467;48.142;11.616;2022-09-03T00:11:26;16.50;99.90
4904;DHT22;2467;48.142;11.616;2022-09-03T00:12:08;16.50;99.90
4904;DHT22;2467;48.142;11.616;2022-09-03T00:12:43;16.50;99.90
4904;DHT22;2467;48.142;11.616;2022-09-03T00:13:20;16.50;99.90
4904;DHT22;2467;48.142;11.616;2022-09-03T00:13:58;16.50;99.90
4904;DHT22;2467;48.142;11.616;2022-09-03T00:14:35;16.60;99.90
4904;DHT22;2467;48.142;11.616;2022-09-03T00:15:11;16.60;99.90
4904;DHT22;2467;48.142;11.616;2022-09-03T00:15:44;16.60;99.90
4904;DHT22;2467;48.142;11.616;2022-09-03T00:16:17;16.60;99.90
4904;DHT22;2467;48.142;11.616;2022-09-03T00:16:55;16.60;99.90
4904;DHT22;2467;48.142;11.616;2022-09-03T00:17:33;16.60;99.90
4904;DHT22;2467;48.142;11.616;2022-09-03T00:18:09;16.60;99.90
4904;DHT22;2467;48.142;11.616;2022-09-03T00:18:46;16.60;99.90
4904;DHT22;2467;48.142;11.616;2022-09-03T00:19:21;16.60;99.90
4904;DHT22;2467;48.142;11.616;2022-09-03T00:19:58;16.60;99.90
4904;DHT22;2467;48.142;11.616;2022-09-03T00:20:35;16.60;99.90
4904;DHT22;2467;48.142;11.616;2022-09-03T00:21:13;16.60;99.90
4904;DHT22;2467;48.142;11.616;2022-09-03T00:21:51;16.60;99.90
4904;DHT22;2467;48.142;11.616;2022-09-03T00:22:28;16.60;99.90
4904;DHT22;2467;48.142;11.616;2022-09-03T00:23:04;16.60;99.90
4904;DHT22;2467;48.142;11.616;2022-09-03T00:23:40;16.60;99.90
4904;DHT22;2467;48.142;11.616;2022-09-03T00:24:17;16.60;99.90
4904;DHT22;2467;48.142;11.616;2022-09-03T00:24:50;16.60;99.90
4904;DHT22;2467;48.142;11.616;2022-09-03T00:25:27;16.60;99.90
4904;DHT22;2467;48.142;11.616;2022-09-03T00:26:06;16.60;99.90
4904;DHT22;2467;48.142;11.616;2022-09-03T00:26:42;16.60;99.90
4904;DHT22;2467;48.142;11.616;2022-09-03T00:27:19;16.60;99.90
4904;DHT22;2467;48.142;11.616;2022-09-03T00:27:56;16.60;99.90
4904;DHT22;2467;48.142;11.616;2022-09-03T00:28:34;16.60;99.90
4904;DHT22;2467;48.142;11.616;2022-09-03T00:29:11;16.60;99.90
4904;DHT22;2467;48.142;11.616;2022-09-03T00:29:48;16.50;99.90
4904;DHT22;2467;48.142;11.616;2022-09-03T00:30:21;16.50;99.90
4904;DHT22;2467;48.142;11.616;2022-09-03T00:31:06;16.50;99.90
4904;DHT22;2467;48.142;11.616;2022-09-03T00:31:45;16.60;99.90
4904;DHT22;2467;48.142;11.616;2022-09-03T00:32:23;16.50;99.90
4904;DHT22;2467;48.142;11.616;2022-09-03T00:33:01;16.50;99.90
4904;DHT22;2467;48.142;11.616;2022-09-03T00:33:41;16.50;99.90
4904;DHT22;2467;48.142;11.616;2022-09-03T00:34:20;16.50;99.90
4904;DHT22;2467;48.142;11.616;2022-09-03T00:34:58;16.50;99.90
4904;DHT22;2467;48.142;11.616;2022-09-03T00:35:36;16.50;99.90
4904;DHT22;2467;48.142;11.616;2022-09-03T00:36:14;16.50;99.90
4904;DHT22;2467;48.142;11.616;2022-09-03T00:36:48;16.50;99.90
4904;DHT22;2467;48.142;11.616;2022-09-03T00:37:20;16.50;99.90
4904;DHT22;2467;48.142;11.616;2022-09-03T00:37:54;16.50;99.90
4904;DHT22;2467;48.142;11.616;2022-09-03T00:38:28;16.50;99.90
4904;DHT22;2467;48.142;11.616;2022-09-03T00:39:00;16.50;99.90
4904;DHT22;2467;48.142;11.616;2022-09-03T00:39:32;16.50;99.90
4904;DHT22;2467;48.142;11.616;2022-09-03T00:40:09;16.50;99.90
4904;DHT22;2467;48.142;11.616;2022-09-03T00:40:55;16.50;99.90
4904;DHT22;2467;48.142;11.616;2022-09-03T00:41:35;16.40;99.90
4904;DHT22;2467;48.142;11.616;2022-09-03T00:42:29;16.40;99.90
4904;DHT22;2467;48.142;11.616;2022-09-03T00:43:10;16.40;99.90
4904;DHT22;2467;48.142;11.616;2022-09-03T00:44:01;16.40;99.90
4904;DHT22;2467;48.142;11.616;2022-09-03T00:44:55;16.40;99.90
4904;DHT22;2467;48.142;11.616;2022-09-03T00:45:35;16.30;99.90
4904;DHT22;2467;48.142;11.616;2022-09-03T00:46:14;16.30;99.90
4904;DHT22;2467;48.142;11.616;2022-09-03T00:46:54;16.30;99.90
4904;DHT22;2467;48.142;11.616;2022-09-03T00:47:38;16.30;99.90
4904;DHT22;2467;48.142;11.616;2022-09-03T00:48:19;16.30;99.90
4904;DHT22;2467;48.142;11.616;2022-09-03T00:49:13;16.20;99.90
4904;DHT22;2467;48.142;11.616;2022-09-03T00:49:57;16.20;99.90
4904;DHT22;2467;48.142;11.616;2022-09-03T00:50:44;16.20;99.90
4904;DHT22;2467;48.142;11.616;2022-09-03T00:51:23;16.20;99.90
4904;DHT22;2467;48.142;11.616;2022-09-03T00:52:06;16.20;99.90
4904;DHT22;2467;48.142;11.616;2022-09-03T00:52:48;16.20;99.90
4904;DHT22;2467;48.142;11.616;2022-09-03T00:53:29;16.20;99.90
4904;DHT22;2467;48.142;11.616;2022-09-03T00:54:07;16.10;99.90
4904;DHT22;2467;48.142;11.616;2022-09-03T00:54:47;16.20;99.90
4904;DHT22;2467;48.142;11.616;2022-09-03T00:55:38;16.20;99.90
4904;DHT22;2467;48.142;11.616;2022-09-03T00:56:22;16.10;99.90
4904;DHT22;2467;48.142;11.616;2022-09-03T00:57:17;16.10;99.90
4904;DHT22;2467;48.142;11.616;2022-09-03T00:58:06;16.10;99.90
4904;DHT22;2467;48.142;11.616;2022-09-03T00:58:56;16.10;99.90
4904;DHT22;2467;48.142;11.616;2022-09-03T00:59:33;16.10;99.90
4904;DHT22;2467;48.142;11.616;2022-09-03T01:00:11;16.00;99.90
4904;DHT22;2467;48.142;11.616;2022-09-03T01:00:44;16.00;99.90
4904;DHT22;2467;48.142;11.616;2022-09-03T01:01:20;16.10;99.90
4904;DHT22;2467;48.142;11.616;2022-09-03T01:02:02;16.00;99.90
4904;DHT22;2467;48.142;11.616;2022-09-03T01:02:56;16.00;99.90
4904;DHT22;2467;48.142;11.616;2022-09-03T01:03:38;16.10;99.90
4904;DHT22;2467;48.142;11.616;2022-09-03T01:04:25;16.00;99.90
4904;DHT22;2467;48.142;11.616;2022-09-03T01:05:02;16.00;99.90
4904;DHT22;2467;48.142;11.616;2022-09-03T01:05:51;16.00;99.90
4904;DHT22;2467;48.142;11.616;2022-09-03T01:06:40;16.00;99.90
4904;DHT22;2467;48.142;11.616;2022-09-03T01:07:25;15.90;99.90
4904;DHT22;2467;48.142;11.616;2022-09-03T01:08:12;15.90;99.90
4904;DHT22;2467;48.142;11.616;2022-09-03T01:08:59;15.90;99.90
4904;DHT22;2467;48.142;11.616;2022-09-03T01:09:43;15.90;99.90
4904;DHT22;2467;48.142;11.616;2022-09-03T01:10:25;15.90;99.90
4904;DHT22;2467;48.142;11.616;2022-09-03T01:11:03;15.90;99.90
4904;DHT22;2467;48.142;11.616;2022-09-03T01:11:51;15.90;99.90
4904;DHT22;2467;48.142;11.616;2022-09-03T01:12:36;15.90;99.90
4904;DHT22;2467;48.142;11.616;2022-09-03T01:13:13;15.90;99.90
4904;DHT22;2467;48.142;11.616;2022-09-03T01:13:49;15.90;99.90
4904;DHT22;2467;48.142;11.616;2022-09-03T01:14:30;15.90;99.90
4904;DHT22;2467;48.142;11.616;2022-09-03T01:15:11;15.90;99.90
4904;DHT22;2467;48.142;11.616;2022-09-03T01:15:49;15.90;99.90
4904;DHT22;2467;48.142;11.616;2022-09-03T01:16:31;15.90;99.90
4904;DHT22;2467;48.142;11.616;2022-09-03T01:17:12;15.90;99.90
4904;DHT22;2467;48.142;11.616;2022-09-03T01:17:55;15.90;99.90
4904;DHT22;2467;48.142;11.616;2022-09-03T01:18:36;15.90;99.90
4904;DHT22;2467;48.142;11.616;2022-09-03T01:19:18;15.90;99.90
4904;DHT22;2467;48.142;11.616;2022-09-03T01:20:20;15.90;99.90
4904;DHT22;2467;48.142;11.616;2022-09-03T01:21:08;15.90;99.90
4904;DHT22;2467;48.142;11.616;2022-09-03T01:21:59;15.90;99.90
4904;DHT22;2467;48.142;11.616;2022-09-03T01:22:58;15.80;99.90
4904;DHT22;2467;48.142;11.616;2022-09-03T01:24:10;15.80;99.90
4904;DHT22;2467;48.142;11.616;2022-09-03T01:25:06;15.80;99.90
4904;DHT22;2467;48.142;11.616;2022-09-03T01:25:51;15.80;99.90
4904;DHT22;2467;48.142;11.616;2022-09-03T01:26:51;15.70;99.90
4904;DHT22;2467;48.142;11.616;2022-09-03T01:27:38;15.70;99.90
4904;DHT22;2467;48.142;11.616;2022-09-03T01:28:37;15.70;99.90
4904;DHT22;2467;48.142;11.616;2022-09-03T01:29:18;15.70;99.90
4904;DHT22;2467;48.142;11.616;2022-09-03T01:30:00;15.70;99.90
4904;DHT22;2467;48.142;11.616;2022-09-03T01:30:37;15.70;99.90
4904;DHT22;2467;48.142;11.616;2022-09-03T01:31:18;15.70;99.90
4904;DHT22;2467;48.142;11.616;2022-09-03T01:32:02;15.70;99.90
4904;DHT22;2467;48.142;11.616;2022-09-03T01:32:42;15.70;99.90
4904;DHT22;2467;48.142;11.616;2022-09-03T01:33:20;15.70;99.90
4904;DHT22;2467;48.142;11.616;2022-09-03T01:34:06;15.70;99.90
4904;DHT22;2467;48.142;11.616;2022-09-03T01:34:51;15.70;99.90
4904;DHT22;2467;48.142;11.616;2022-09-03T01:35:29;15.80;99.90
4904;DHT22;2467;48.142;11.616;2022-09-03T01:36:09;15.80;99.90
4904;DHT22;2467;48.142;11.616;2022-09-03T01:36:50;15.80;99.90
4904;DHT22;2467;48.142;11.616;2022-09-03T01:37:33;15.80;99.90
4904;DHT22;2467;48.142;11.616;2022-09-03T01:38:19;15.70;99.90
4904;DHT22;2467;48.142;11.616;2022-09-03T01:38:59;15.70;99.90
4904;DHT22;2467;48.142;11.616;2022-09-03T01:39:37;15.70;99.90
4904;DHT22;2467;48.142;11.616;2022-09-03T01:40:16;15.70;99.90
4904;DHT22;2467;48.142;11.616;2022-09-03T01:41:02;15.70;99.90
4904;DHT22;2467;48.142;11.616;2022-09-03T01:42:00;15.70;99.90
4904;DHT22;2467;48.142;11.616;2022-09-03T01:43:03;15.70;99.90
4904;DHT22;2467;48.142;11.616;2022-09-03T01:43:43;15.70;99.90
4904;DHT22;2467;48.142;11.616;2022-09-03T01:44:27;15.70;99.90
4904;DHT22;2467;48.142;11.616;2022-09-03T01:45:20;15.70;99.90
4904;DHT22;2467;48.142;11.616;2022-09-03T01:46:00;15.70;99.90
4904;DHT22;2467;48.142;11.616;2022-09-03T01:46:37;15.60;99.90
4904;DHT22;2467;48.142;11.616;2022-09-03T01:47:26;15.60;99.90
4904;DHT22;2467;48.142;11.616;2022-09-03T01:48:13;15.70;99.90
4904;DHT22;2467;48.142;11.616;2022-09-03T01:48:52;15.60;99.90
4904;DHT22;2467;48.142;11.616;2022-09-03T01:49:36;15.60;99.90
4904;DHT22;2467;48.142;11.616;2022-09-03T01:50:12;15.60;99.90
4904;DHT22;2467;48.142;11.616;2022-09-03T01:50:50;15.60;99.90
4904;DHT22;2467;48.142;11.616;2022-09-03T01:51:29;15.50;99.90
4904;DHT22;2467;48.142;11.616;2022-09-03T01:52:08;15.50;99.90
4904;DHT22;2467;48.142;11.616;2022-09-03T01:52:45;15.50;99.90
4904;DHT22;2467;48.142;11.616;2022-09-03T01:53:31;15.50;99.90
4904;DHT22;2467;48.142;11.616;2022-09-03T01:54:42;15.50;99.90
4904;DHT22;2467;48.142;11.616;2022-09-03T01:55:30;15.40;99.90
4904;DHT22;2467;48.142;11.616;2022-09-03T01:56:15;15.40;99.90
4904;DHT22;2467;48.142;11.616;2022-09-03T01:57:06;15.40;99.90
4904;DHT22;2467;48.142;11.616;2022-09-03T01:58:04;15.40;99.90
4904;DHT22;2467;48.142;11.616;2022-09-03T01:58:44;15.40;99.90
4904;DHT22;2467;48.142;11.616;2022-09-03T01:59:22;15.40;99.90
4904;DHT22;2467;48.142;11.616;2022-09-03T02:00:00;15.30;99.90
4904;DHT22;2467;48.142;11.616;2022-09-03T02:00:37;15.30;99.90
4904;DHT22;2467;48.142;11.616;2022-09-03T02:01:15;15.30;99.90
4904;DHT22;2467;48.142;11.616;2022-09-03T02:01:52;15.30;99.90
4904;DHT22;2467;48.142;11.616;2022-09-03T02:02:29;15.30;99.90
4904;DHT22;2467;48.142;11.616;2022-09-03T02:03:03;15.30;99.90
4904;DHT22;2467;48.142;11.616;2022-09-03T02:03:39;15.30;99.90
4904;DHT22;2467;48.142;11.616;2022-09-03T02:04:16;15.30;99.90
4904;DHT22;2467;48.142;11.616;2022-09-03T02:04:58;15.30;99.90
4904;DHT22;2467;48.142;11.616;2022-09-03T02:05:31;15.30;99.90
4904;DHT22;2467;48.142;11.616;2022-09-03T02:06:03;15.30;99.90
4904;DHT22;2467;48.142;11.616;2022-09-03T02:06:36;15.30;99.90
4904;DHT22;2467;48.142;11.616;2022-09-03T02:07:09;15.30;99.90
4904;DHT22;2467;48.142;11.616;2022-09-03T02:07:44;15.30;99.90
4904;DHT22;2467;48.142;11.616;2022-09-03T02:08:17;15.30;99.90
4904;DHT22;2467;48.142;11.616;2022-09-03T02:08:50;15.30;99.90
4904;DHT22;2467;48.142;11.616;2022-09-03T02:09:22;15.30;99.90
4904;DHT22;2467;48.142;11.616;2022-09-03T02:09:58;15.30;99.90
4904;DHT22;2467;48.142;11.616;2022-09-03T02:10:33;15.30;99.90
4904;DHT22;2467;48.142;11.616;2022-09-03T02:11:08;15.30;99.90
4904;DHT22;2467;48.142;11.616;2022-09-03T02:11:41;15.30;99.90
4904;DHT22;2467;48.142;11.616;2022-09-03T02:12:15;15.30;99.90
4904;DHT22;2467;48.142;11.616;2022-09-03T02:12:53;15.40;99.90
4904;DHT22;2467;48.142;11.616;2022-09-03T02:13:31;15.40;99.90
4904;DHT22;2467;48.142;11.616;2022-09-03T02:14:05;15.40;99.90
4904;DHT22;2467;48.142;11.616;2022-09-03T02:14:36;15.40;99.90
4904;DHT22;2467;48.142;11.616;2022-09-03T02:15:11;15.40;99.90
4904;DHT22;2467;48.142;11.616;2022-09-03T02:15:45;15.40;99.90
4904;DHT22;2467;48.142;11.616;2022-09-03T02:16:21;15.40;99.90
4904;DHT22;2467;48.142;11.616;2022-09-03T02:16:57;15.40;99.90
4904;DHT22;2467;48.142;11.616;2022-09-03T02:17:30;15.40;99.90
4904;DHT22;2467;48.142;11.616;2022-09-03T02:18:05;15.40;99.90
4904;DHT22;2467;48.142;11.616;2022-09-03T02:18:41;15.40;99.90
4904;DHT22;2467;48.142;11.616;2022-09-03T02:19:16;15.40;99.90
4904;DHT22;2467;48.142;11.616;2022-09-03T02:19:48;15.50;99.90
4904;DHT22;2467;48.142;11.616;2022-09-03T02:20:22;15.50;99.90
4904;DHT22;2467;48.142;11.616;2022-09-03T02:20:58;15.50;99.90
4904;DHT22;2467;48.142;11.616;2022-09-03T02:21:34;15.50;99.90
4904;DHT22;2467;48.142;11.616;2022-09-03T02:22:07;15.50;99.90
4904;DHT22;2467;48.142;11.616;2022-09-03T02:22:41;15.50;99.90
4904;DHT22;2467;48.142;11.616;2022-09-03T02:23:14;15.50;99.90
4904;DHT22;2467;48.142;11.616;2022-09-03T02:23:47;15.50;99.90
4904;DHT22;2467;48.142;11.616;2022-09-03T02:24:21;15.50;99.90
4904;DHT22;2467;48.142;11.616;2022-09-03T02:24:53;15.50;99.90
4904;DHT22;2467;48.142;11.616;2022-09-03T02:25:31;15.50;99.90
4904;DHT22;2467;48.142;11.616;2022-09-03T02:26:06;15.50;99.90
4904;DHT22;2467;48.142;11.616;2022-09-03T02:26:40;15.60;99.90
4904;DHT22;2467;48.142;11.616;2022-09-03T02:27:12;15.60;99.90
4904;DHT22;2467;48.142;11.616;2022-09-03T02:27:44;15.50;99.90
4904;DHT22;2467;48.142;11.616;2022-09-03T02:28:17;15.50;99.90
4904;DHT22;2467;48.142;11.616;2022-09-03T02:28:50;15.50;99.90
4904;DHT22;2467;48.142;11.616;2022-09-03T02:29:24;15.50;99.90
4904;DHT22;2467;48.142;11.616;2022-09-03T02:29:59;15.50;99.90
4904;DHT22;2467;48.142;11.616;2022-09-03T02:30:31;15.50;99.90
4904;DHT22;2467;48.142;11.616;2022-09-03T02:31:04;15.50;99.90
4904;DHT22;2467;48.142;11.616;2022-09-03T02:31:37;15.50;99.90
4904;DHT22;2467;48.142;11.616;2022-09-03T02:32:09;15.50;99.90
4904;DHT22;2467;48.142;11.616;2022-09-03T02:32:40;15.40;99.90
4904;DHT22;2467;48.142;11.616;2022-09-03T02:33:14;15.40;99.90
4904;DHT22;2467;48.142;11.616;2022-09-03T02:33:47;15.50;99.90
4904;DHT22;2467;48.142;11.616;2022-09-03T02:34:21;15.50;99.90
4904;DHT22;2467;48.142;11.616;2022-09-03T02:34:53;15.40;99.90
4904;DHT22;2467;48.142;11.616;2022-09-03T02:35:25;15.40;99.90
4904;DHT22;2467;48.142;11.616;2022-09-03T02:35:58;15.40;99.90
4904;DHT22;2467;48.142;11.616;2022-09-03T02:36:32;15.40;99.90
4904;DHT22;2467;48.142;11.616;2022-09-03T02:37:11;15.40;99.90
4904;DHT22;2467;48.142;11.616;2022-09-03T02:37:45;15.40;99.90
4904;DHT22;2467;48.142;11.616;2022-09-03T02:38:18;15.40;99.90
4904;DHT22;2467;48.142;11.616;2022-09-03T02:38:50;15.40;99.90
4904;DHT22;2467;48.142;11.616;2022-09-03T02:39:23;15.40;99.90
4904;DHT22;2467;48.142;11.616;2022-09-03T02:39:55;15.40;99.90
4904;DHT22;2467;48.142;11.616;2022-09-03T02:40:27;15.40;99.90
4904;DHT22;2467;48.142;11.616;2022-09-03T02:41:00;15.40;99.90
4904;DHT22;2467;48.142;11.616;2022-09-03T02:41:33;15.40;99.90
4904;DHT22;2467;48.142;11.616;2022-09-03T02:42:05;15.40;99.90
4904;DHT22;2467;48.142;11.616;2022-09-03T02:42:40;15.40;99.90
4904;DHT22;2467;48.142;11.616;2022-09-03T02:43:15;15.40;99.90
4904;DHT22;2467;48.142;11.616;2022-09-03T02:43:53;15.40;99.90
4904;DHT22;2467;48.142;11.616;2022-09-03T02:44:32;15.40;99.90
4904;DHT22;2467;48.142;11.616;2022-09-03T02:45:16;15.40;99.90
4904;DHT22;2467;48.142;11.616;2022-09-03T02:45:54;15.40;99.90
4904;DHT22;2467;48.142;11.616;2022-09-03T02:46:32;15.40;99.90
4904;DHT22;2467;48.142;11.616;2022-09-03T02:47:07;15.40;99.90
4904;DHT22;2467;48.142;11.616;2022-09-03T02:47:40;15.40;99.90
4904;DHT22;2467;48.142;11.616;2022-09-03T02:48:19;15.40;99.90
4904;DHT22;2467;48.142;11.616;2022-09-03T02:48:53;15.40;99.90
4904;DHT22;2467;48.142;11.616;2022-09-03T02:49:25;15.40;99.90
4904;DHT22;2467;48.142;11.616;2022-09-03T02:49:59;15.40;99.90
4904;DHT22;2467;48.142;11.616;2022-09-03T02:50:31;15.40;99.90
4904;DHT22;2467;48.142;11.616;2022-09-03T02:51:04;15.40;99.90
4904;DHT22;2467;48.142;11.616;2022-09-03T02:51:45;15.40;99.90
4904;DHT22;2467;48.142;11.616;2022-09-03T02:52:16;15.40;99.90
4904;DHT22;2467;48.142;11.616;2022-09-03T02:52:49;15.40;99.90
4904;DHT22;2467;48.142;11.616;2022-09-03T02:53:21;15.40;99.90
4904;DHT22;2467;48.142;11.616;2022-09-03T02:53:54;15.50;99.90
4904;DHT22;2467;48.142;11.616;2022-09-03T02:54:26;15.50;99.90
4904;DHT22;2467;48.142;11.616;2022-09-03T02:54:58;15.50;99.90
4904;DHT22;2467;48.142;11.616;2022-09-03T02:55:31;15.40;99.90
4904;DHT22;2467;48.142;11.616;2022-09-03T02:56:03;15.40;99.90
4904;DHT22;2467;48.142;11.616;2022-09-03T02:56:35;15.40;99.90
4904;DHT22;2467;48.142;11.616;2022-09-03T02:57:09;15.50;99.90
4904;DHT22;2467;48.142;11.616;2022-09-03T02:57:42;15.50;99.90
4904;DHT22;2467;48.142;11.616;2022-09-03T02:58:14;15.40;99.90
4904;DHT22;2467;48.142;11.616;2022-09-03T02:58:47;15.40;99.90
4904;DHT22;2467;48.142;11.616;2022-09-03T02:59:19;15.40;99.90
4904;DHT22;2467;48.142;11.616;2022-09-03T02:59:54;15.40;99.90
4904;DHT22;2467;48.142;11.616;2022-09-03T03:00:27;15.40;99.90
4904;DHT22;2467;48.142;11.616;2022-09-03T03:00:59;15.40;99.90
4904;DHT22;2467;48.142;11.616;2022-09-03T03:01:31;15.40;99.90
4904;DHT22;2467;48.142;11.616;2022-09-03T03:02:04;15.40;99.90
4904;DHT22;2467;48.142;11.616;2022-09-03T03:02:36;15.40;99.90
4904;DHT22;2467;48.142;11.616;2022-09-03T03:03:08;15.40;99.90
4904;DHT22;2467;48.142;11.616;2022-09-03T03:03:41;15.40;99.90
4904;DHT22;2467;48.142;11.616;2022-09-03T03:04:14;15.40;99.90
4904;DHT22;2467;48.142;11.616;2022-09-03T03:04:46;15.40;99.90
4904;DHT22;2467;48.142;11.616;2022-09-03T03:05:22;15.40;99.90
4904;DHT22;2467;48.142;11.616;2022-09-03T03:05:59;15.30;99.90
4904;DHT22;2467;48.142;11.616;2022-09-03T03:06:31;15.30;99.90
4904;DHT22;2467;48.142;11.616;2022-09-03T03:07:04;15.40;99.90
4904;DHT22;2467;48.142;11.616;2022-09-03T03:07:37;15.30;99.90
4904;DHT22;2467;48.142;11.616;2022-09-03T03:08:10;15.30;99.90
4904;DHT22;2467;48.142;11.616;2022-09-03T03:08:46;15.30;99.90
4904;DHT22;2467;48.142;11.616;2022-09-03T03:09:18;15.30;99.90
4904;DHT22;2467;48.142;11.616;2022-09-03T03:09:51;15.30;99.90
4904;DHT22;2467;48.142;11.616;2022-09-03T03:10:23;15.30;99.90
4904;DHT22;2467;48.142;11.616;2022-09-03T03:10:56;15.30;99.90
4904;DHT22;2467;48.142;11.616;2022-09-03T03:11:31;15.30;99.90
4904;DHT22;2467;48.142;11.616;2022-09-03T03:12:03;15.20;99.90
4904;DHT22;2467;48.142;11.616;2022-09-03T03:12:35;15.30;99.90
4904;DHT22;2467;48.142;11.616;2022-09-03T03:13:08;15.30;99.90
4904;DHT22;2467;48.142;11.616;2022-09-03T03:13:40;15.30;99.90
4904;DHT22;2467;48.142;11.616;2022-09-03T03:14:12;15.30;99.90
4904;DHT22;2467;48.142;11.616;2022-09-03T03:14:45;15.30;99.90
4904;DHT22;2467;48.142;11.616;2022-09-03T03:15:18;15.30;99.90
4904;DHT22;2467;48.142;11.616;2022-09-03T03:15:50;15.20;99.90
4904;DHT22;2467;48.142;11.616;2022-09-03T03:16:23;15.30;99.90
4904;DHT22;2467;48.142;11.616;2022-09-03T03:16:55;15.30;99.90
4904;DHT22;2467;48.142;11.616;2022-09-03T03:17:27;15.30;99.90
4904;DHT22;2467;48.142;11.616;2022-09-03T03:18:00;15.20;99.90
4904;DHT22;2467;48.142;11.616;2022-09-03T03:18:32;15.20;99.90
4904;DHT22;2467;48.142;11.616;2022-09-03T03:19:04;15.30;99.90
4904;DHT22;2467;48.142;11.616;2022-09-03T03:19:37;15.30;99.90
4904;DHT22;2467;48.142;11.616;2022-09-03T03:20:10;15.30;99.90
4904;DHT22;2467;48.142;11.616;2022-09-03T03:20:42;15.30;99.90
4904;DHT22;2467;48.142;11.616;2022-09-03T03:21:16;15.30;99.90
4904;DHT22;2467;48.142;11.616;2022-09-03T03:21:49;15.30;99.90
4904;DHT22;2467;48.142;11.616;2022-09-03T03:22:21;15.30;99.90
4904;DHT22;2467;48.142;11.616;2022-09-03T03:22:54;15.30;99.90
4904;DHT22;2467;48.142;11.616;2022-09-03T03:23:26;15.30;99.90
4904;DHT22;2467;48.142;11.616;2022-09-03T03:24:00;15.30;99.90
4904;DHT22;2467;48.142;11.616;2022-09-03T03:24:32;15.20;99.90
4904;DHT22;2467;48.142;11.616;2022-09-03T03:25:04;15.20;99.90
4904;DHT22;2467;48.142;11.616;2022-09-03T03:25:38;15.20;99.90
4904;DHT22;2467;48.142;11.616;2022-09-03T03:26:12;15.20;99.90
4904;DHT22;2467;48.142;11.616;2022-09-03T03:26:44;15.20;99.90
4904;DHT22;2467;48.142;11.616;2022-09-03T03:27:17;15.20;99.90
4904;DHT22;2467;48.142;11.616;2022-09-03T03:27:49;15.20;99.90
4904;DHT22;2467;48.142;11.616;2022-09-03T03:28:21;15.20;99.90
4904;DHT22;2467;48.142;11.616;2022-09-03T03:28:55;15.20;99.90
4904;DHT22;2467;48.142;11.616;2022-09-03T03:29:29;15.20;99.90
4904;DHT22;2467;48.142;11.616;2022-09-03T03:30:01;15.20;99.90
4904;DHT22;2467;48.142;11.616;2022-09-03T03:30:36;15.20;99.90
4904;DHT22;2467;48.142;11.616;2022-09-03T03:31:12;15.20;99.90
4904;DHT22;2467;48.142;11.616;2022-09-03T03:31:45;15.20;99.90
4904;DHT22;2467;48.142;11.616;2022-09-03T03:32:17;15.20;99.90
4904;DHT22;2467;48.142;11.616;2022-09-03T03:32:52;15.20;99.90
4904;DHT22;2467;48.142;11.616;2022-09-03T03:33:24;15.20;99.90
4904;DHT22;2467;48.142;11.616;2022-09-03T03:33:57;15.20;99.90
4904;DHT22;2467;48.142;11.616;2022-09-03T03:34:30;15.20;99.90
4904;DHT22;2467;48.142;11.616;2022-09-03T03:35:03;15.20;99.90
4904;DHT22;2467;48.142;11.616;2022-09-03T03:35:35;15.20;99.90
4904;DHT22;2467;48.142;11.616;2022-09-03T03:36:09;15.20;99.90
4904;DHT22;2467;48.142;11.616;2022-09-03T03:36:42;15.10;99.90
4904;DHT22;2467;48.142;11.616;2022-09-03T03:37:14;15.20;99.90
4904;DHT22;2467;48.142;11.616;2022-09-03T03:37:47;15.10;99.90
4904;DHT22;2467;48.142;11.616;2022-09-03T03:38:19;15.20;99.90
4904;DHT22;2467;48.142;11.616;2022-09-03T03:38:53;15.20;99.90
4904;DHT22;2467;48.142;11.616;2022-09-03T03:39:26;15.20;99.90
4904;DHT22;2467;48.142;11.616;2022-09-03T03:39:58;15.10;99.90
4904;DHT22;2467;48.142;11.616;2022-09-03T03:40:30;15.20;99.90
4904;DHT22;2467;48.142;11.616;2022-09-03T03:41:07;15.20;99.90
4904;DHT22;2467;48.142;11.616;2022-09-03T03:41:39;15.20;99.90
4904;DHT22;2467;48.142;11.616;2022-09-03T03:42:11;15.10;99.90
4904;DHT22;2467;48.142;11.616;2022-09-03T03:42:44;15.20;99.90
4904;DHT22;2467;48.142;11.616;2022-09-03T03:43:16;15.10;99.90
4904;DHT22;2467;48.142;11.616;2022-09-03T03:43:51;15.10;99.90
4904;DHT22;2467;48.142;11.616;2022-09-03T03:44:25;15.10;99.90
4904;DHT22;2467;48.142;11.616;2022-09-03T03:44:57;15.10;99.90
4904;DHT22;2467;48.142;11.616;2022-09-03T03:45:29;15.10;99.90
4904;DHT22;2467;48.142;11.616;2022-09-03T03:46:03;15.10;99.90
4904;DHT22;2467;48.142;11.616;2022-09-03T03:46:37;15.10;99.90
4904;DHT22;2467;48.142;11.616;2022-09-03T03:47:09;15.10;99.90
4904;DHT22;2467;48.142;11.616;2022-09-03T03:47:42;15.10;99.90
4904;DHT22;2467;48.142;11.616;2022-09-03T03:48:14;15.10;99.90
4904;DHT22;2467;48.142;11.616;2022-09-03T03:48:46;15.10;99.90
4904;DHT22;2467;48.142;11.616;2022-09-03T03:49:18;15.10;99.90
4904;DHT22;2467;48.142;11.616;2022-09-03T03:49:51;15.10;99.90
4904;DHT22;2467;48.142;11.616;2022-09-03T03:50:23;15.10;99.90
4904;DHT22;2467;48.142;11.616;2022-09-03T03:50:59;15.20;99.90
4904;DHT22;2467;48.142;11.616;2022-09-03T03:51:32;15.10;99.90
4904;DHT22;2467;48.142;11.616;2022-09-03T03:52:04;15.10;99.90
4904;DHT22;2467;48.142;11.616;2022-09-03T03:52:37;15.10;99.90
4904;DHT22;2467;48.142;11.616;2022-09-03T03:53:09;15.10;99.90
4904;DHT22;2467;48.142;11.616;2022-09-03T03:53:42;15.10;99.90
4904;DHT22;2467;48.142;11.616;2022-09-03T03:54:14;15.10;99.90
4904;DHT22;2467;48.142;11.616;2022-09-03T03:54:48;15.10;99.90
4904;DHT22;2467;48.142;11.616;2022-09-03T03:55:21;15.10;99.90
4904;DHT22;2467;48.142;11.616;2022-09-03T03:56:00;15.10;99.90
4904;DHT22;2467;48.142;11.616;2022-09-03T03:56:32;15.10;99.90
4904;DHT22;2467;48.142;11.616;2022-09-03T03:57:05;15.10;99.90
4904;DHT22;2467;48.142;11.616;2022-09-03T03:57:37;15.10;99.90
4904;DHT22;2467;48.142;11.616;2022-09-03T03:58:09;15.10;99.90
4904;DHT22;2467;48.142;11.616;2022-09-03T03:58:41;15.10;99.90